Time;durP1;ratioP1;P1;durP2;ratioP2;P2;SDS_P1;SDS_P2;PMS_P1;PMS_P2;Temp;Humidity;BMP_temperature;BMP_pressure;BME280_temperature;BME280_humidity;BME280_pressure;Samples;Min_cycle;Max_cycle;Signal;HPM_P1;HPM_P2
2023/03/21 00:02:03;;;;;;;10.57;6.80;;;;;;;4.10;96.79;99800.31;10504257;28;20043;-76
2023/03/21 00:07:06;;;;;;;10.27;6.55;;;;;;;4.09;96.31;99787.84;10515199;28;20494;-76
2023/03/21 00:12:10;;;;;;;8.90;6.20;;;;;;;4.07;96.17;99798.13;10526478;28;20059;-77
2023/03/21 00:17:14;;;;;;;9.68;6.18;;;;;;;4.02;96.82;99796.19;10514092;28;20044;-76
2023/03/21 00:22:17;;;;;;;8.75;5.55;;;;;;;3.98;96.24;99807.81;10522502;28;20048;-77
2023/03/21 00:27:19;;;;;;;9.70;6.47;;;;;;;3.99;96.73;99798.59;10528044;28;20044;-78
2023/03/21 00:32:22;;;;;;;8.60;6.68;;;;;;;4.18;96.75;99792.53;10491510;28;20075;-77
2023/03/21 00:37:27;;;;;;;9.68;6.13;;;;;;;4.10;96.31;99787.56;10492918;28;20041;-77
2023/03/21 00:42:29;;;;;;;8.23;6.00;;;;;;;3.99;96.03;99782.31;10515364;28;20040;-78
2023/03/21 00:47:32;;;;;;;6.28;4.63;;;;;;;4.10;95.69;99787.56;10533485;28;20044;-76
2023/03/21 00:52:34;;;;;;;6.93;4.30;;;;;;;4.11;95.65;99781.06;10480619;28;20055;-77
2023/03/21 00:57:36;;;;;;;5.47;3.72;;;;;;;4.24;95.67;99775.19;10511642;28;20048;-78
2023/03/21 01:02:55;;;;;;;5.40;4.32;;;;;;;4.10;95.00;99784.84;10533544;28;20647;-78
2023/03/21 01:13:25;;;;;;;;;;;;;;;3.65;95.33;99793.44;10485387;28;20480;-77
2023/03/21 01:18:36;;;;;;;2.13;1.60;;;;;;;3.13;94.01;99793.94;10530068;28;19924;-77
2023/03/21 01:23:40;;;;;;;1.70;1.13;;;;;;;2.57;93.13;99811.34;10509481;28;20045;-77
2023/03/21 01:28:47;;;;;;;0.80;0.70;;;;;;;2.03;93.13;99814.56;10524981;28;20056;-76
2023/03/21 01:33:49;;;;;;;0.77;0.77;;;;;;;1.71;93.37;99829.69;10497397;28;20044;-77
2023/03/21 01:38:52;;;;;;;0.30;0.30;;;;;;;1.51;93.48;99828.25;10511922;28;20036;-76
2023/03/21 01:43:55;;;;;;;7.78;0.90;;;;;;;1.28;93.76;99833.75;10532142;28;20059;-77
2023/03/21 01:49:18;;;;;;;0.63;0.57;;;;;;;1.11;94.16;99832.88;10512361;28;20051;-76
2023/03/21 01:54:27;;;;;;;0.30;0.30;;;;;;;1.11;94.70;99841.78;10513983;28;20032;-77
2023/03/21 01:59:35;;;;;;;0.57;0.55;;;;;;;1.00;94.42;99831.81;10506278;28;20045;-78
2023/03/21 02:04:56;;;;;;;0.73;0.55;;;;;;;0.94;95.08;99840.88;10503653;28;20045;-76
2023/03/21 02:10:06;;;;;;;0.60;0.60;;;;;;;0.93;95.24;99851.94;10451184;28;20052;-77
2023/03/21 02:15:09;;;;;;;1.33;0.50;;;;;;;1.01;95.48;99843.44;10504315;28;20062;-78
2023/03/21 02:20:58;;;;;;;0.35;0.35;;;;;;;0.95;95.00;99845.22;10517677;28;20044;-77
2023/03/21 02:26:18;;;;;;;0.40;0.40;;;;;;;0.80;94.98;99848.41;10509393;28;20040;-77
2023/03/21 02:31:40;;;;;;;0.22;0.22;;;;;;;0.80;95.14;99834.91;10495398;28;20044;-77
2023/03/21 02:37:05;;;;;;;0.17;0.17;;;;;;;0.82;95.32;99849.00;10511786;28;20497;-77
2023/03/21 02:42:20;;;;;;;0.20;0.20;;;;;;;0.82;95.42;99848.19;10500466;28;20417;-76
2023/03/21 02:47:28;;;;;;;1.88;0.32;;;;;;;0.66;95.30;99851.59;10489566;28;20041;-77
2023/03/21 02:52:35;;;;;;;0.32;0.32;;;;;;;0.76;95.21;99863.47;10453322;28;20041;-78
2023/03/21 02:57:44;;;;;;;0.32;0.30;;;;;;;0.65;95.41;99850.78;10486049;28;20040;-77
2023/03/21 03:02:49;;;;;;;0.10;0.10;;;;;;;0.68;95.82;99850.31;10506589;28;20056;-77
2023/03/21 03:08:06;;;;;;;0.20;0.20;;;;;;;0.52;95.65;99851.00;10508401;28;20044;-77
2023/03/21 03:13:31;;;;;;;0.17;0.17;;;;;;;0.68;95.85;99844.91;10509358;28;20055;-76
2023/03/21 03:18:43;;;;;;;0.20;0.20;;;;;;;0.55;96.03;99842.47;10487138;28;20041;-77
2023/03/21 03:23:56;;;;;;;0.20;0.20;;;;;;;0.50;96.23;99845.03;10452455;28;20040;-78
2023/03/21 03:29:03;;;;;;;0.10;0.10;;;;;;;0.58;96.11;99842.00;10486836;28;20635;-77
2023/03/21 03:34:12;;;;;;;0.20;0.20;;;;;;;0.67;95.73;99840.56;10480136;28;20502;-77
2023/03/21 03:39:18;;;;;;;0.30;0.20;;;;;;;0.64;95.97;99859.13;10499755;28;20044;-77
2023/03/21 03:44:27;;;;;;;0.22;0.22;;;;;;;0.65;95.79;99869.69;10522031;28;20426;-77
2023/03/21 03:49:41;;;;;;;0.30;0.20;;;;;;;0.67;95.37;99861.34;10495960;28;20048;-82
2023/03/21 03:54:45;;;;;;;0.10;0.10;;;;;;;0.58;95.65;99863.59;10483214;28;20052;-77
2023/03/21 03:59:48;;;;;;;0.68;0.28;;;;;;;0.57;96.02;99861.94;10473872;28;20072;-77
2023/03/21 04:04:53;;;;;;;0.20;0.20;;;;;;;0.46;95.57;99881.66;10515268;28;20395;-79
2023/03/21 04:09:56;;;;;;;3.90;0.20;;;;;;;0.47;95.99;99889.50;10524861;28;20044;-78
2023/03/21 04:14:59;;;;;;;0.30;0.30;;;;;;;0.40;96.00;99893.38;10514088;28;20052;-78
2023/03/21 04:20:04;;;;;;;0.93;0.52;;;;;;;0.58;95.87;99888.69;10489878;28;20060;-78
2023/03/21 04:25:07;;;;;;;0.60;0.35;;;;;;;0.45;95.96;99898.91;10529854;28;20051;-76
2023/03/21 04:30:11;;;;;;;0.40;0.40;;;;;;;0.45;95.60;99907.00;10525395;28;20044;-80
2023/03/21 04:35:27;;;;;;;0.30;0.30;;;;;;;0.50;96.44;99912.50;10502886;28;20041;-77
2023/03/21 04:40:30;;;;;;;0.60;0.50;;;;;;;0.48;96.27;99922.72;10502543;28;20591;-78
2023/03/21 04:45:32;;;;;;;1.90;0.60;;;;;;;0.62;95.94;99928.72;10522707;28;20036;-76
2023/03/21 04:50:35;;;;;;;0.65;0.65;;;;;;;0.59;96.25;99906.53;10512345;28;20051;-76
2023/03/21 04:55:38;;;;;;;0.82;0.82;;;;;;;0.66;96.32;99914.50;10518866;28;20036;-78
2023/03/21 05:00:41;;;;;;;1.60;0.70;;;;;;;0.71;96.07;99930.84;10531097;28;20467;-78
2023/03/21 05:05:43;;;;;;;1.05;0.68;;;;;;;0.58;95.86;99931.06;10505576;28;20648;-78
2023/03/21 05:10:46;;;;;;;0.50;0.50;;;;;;;0.60;95.50;99943.28;10499259;28;20047;-78
2023/03/21 05:15:48;;;;;;;0.82;0.52;;;;;;;0.62;96.23;99950.31;10506498;28;20062;-77
2023/03/21 05:20:55;;;;;;;0.68;0.68;;;;;;;0.68;95.81;99944.81;10483507;28;20033;-76
2023/03/21 05:25:58;;;;;;;0.60;0.60;;;;;;;0.83;95.46;99949.75;10473752;28;20037;-77
2023/03/21 05:31:14;;;;;;;1.85;0.70;;;;;;;0.74;94.95;99946.59;10474311;28;20494;-77
2023/03/21 05:36:21;;;;;;;2.75;0.88;;;;;;;0.72;95.02;99948.69;10514869;28;20040;-78
2023/03/21 05:41:26;;;;;;;0.93;0.90;;;;;;;0.72;95.31;99948.69;10515011;28;20417;-78
2023/03/21 05:47:38;;;;;;;2.47;1.13;;;;;;;0.70;94.61;99958.91;10501524;28;20124;-79
2023/03/21 05:52:58;;;;;;;2.85;1.00;;;;;;;0.79;94.69;99975.59;10471163;28;20036;-78
2023/03/21 05:59:11;;;;;;;1.33;1.15;;;;;;;0.84;94.35;99981.91;10513672;28;20044;-78
2023/03/21 06:04:45;;;;;;;2.20;1.42;;;;;;;0.95;92.71;99987.56;10527981;28;20044;-78
2023/03/21 06:09:48;;;;;;;2.55;1.38;;;;;;;1.02;92.38;99988.28;10484186;28;20049;-78
2023/03/21 06:14:51;;;;;;;1.77;1.10;;;;;;;1.14;92.38;99991.81;10510272;28;20046;-78
2023/03/21 06:20:05;;;;;;;1.95;1.20;;;;;;;1.17;91.58;99984.03;10487892;28;20040;-78
2023/03/21 06:25:13;;;;;;;1.27;1.00;;;;;;;1.28;91.14;100001.31;10511693;28;20052;-78
2023/03/21 06:30:17;;;;;;;1.38;1.10;;;;;;;1.45;91.38;100002.25;10493306;28;20421;-78
2023/03/21 06:35:56;;;;;;;0.65;0.65;;;;;;;1.58;90.24;100011.16;10452690;28;20426;-78
2023/03/21 06:40:59;;;;;;;1.20;0.90;;;;;;;1.54;89.87;100008.09;10507986;28;20453;-78
2023/03/21 06:46:05;;;;;;;1.00;0.77;;;;;;;1.46;89.64;100014.69;10511681;28;20074;-78
2023/03/21 06:51:12;;;;;;;1.35;0.80;;;;;;;1.57;88.89;100017.63;10484060;28;20047;-78
2023/03/21 06:56:18;;;;;;;1.55;0.90;;;;;;;1.53;89.33;100030.78;10503727;28;20498;-77
2023/03/21 07:01:21;;;;;;;0.65;0.65;;;;;;;1.43;89.00;100026.00;10511376;28;20041;-79
2023/03/21 07:06:36;;;;;;;1.35;0.90;;;;;;;1.36;89.18;100035.25;10510211;28;20406;-78
2023/03/21 07:11:38;;;;;;;1.20;0.70;;;;;;;1.37;89.14;100026.09;10479113;28;20057;-78
2023/03/21 07:16:41;;;;;;;1.48;1.20;;;;;;;1.47;89.05;100032.56;10492748;28;20044;-78
2023/03/21 07:21:43;;;;;;;1.77;1.10;;;;;;;1.41;89.21;100040.81;10515422;28;20045;-78
2023/03/21 07:26:45;;;;;;;1.20;1.10;;;;;;;1.29;88.37;100045.38;10436286;28;20049;-77
2023/03/21 07:31:48;;;;;;;1.20;1.10;;;;;;;1.51;88.25;100049.13;10512020;28;20409;-77
2023/03/21 07:36:50;;;;;;;1.83;0.93;;;;;;;1.64;88.04;100048.06;10516662;28;20041;-79
2023/03/21 07:41:55;;;;;;;1.98;1.02;;;;;;;1.70;87.43;100053.34;10476460;28;20059;-79
2023/03/21 07:47:05;;;;;;;0.98;0.98;;;;;;;1.68;86.24;100052.75;10468944;28;20045;-78
2023/03/21 07:52:08;;;;;;;1.85;1.00;;;;;;;1.80;86.39;100045.47;10484224;28;20037;-78
2023/03/21 07:57:10;;;;;;;1.67;0.85;;;;;;;1.97;86.01;100060.94;10525594;28;20037;-77
2023/03/21 08:02:16;;;;;;;1.55;0.98;;;;;;;2.00;85.71;100063.19;10521743;28;20033;-81
2023/03/21 08:07:18;;;;;;;1.08;0.98;;;;;;;2.15;85.17;100062.66;10512830;28;20044;-80
2023/03/21 08:12:21;;;;;;;1.17;1.02;;;;;;;1.97;84.39;100060.94;10504755;28;20062;-77
2023/03/21 08:17:23;;;;;;;2.25;0.93;;;;;;;1.81;84.83;100076.03;10537503;28;20040;-80
2023/03/21 08:22:25;;;;;;;1.52;1.00;;;;;;;2.01;85.13;100083.75;10533939;28;20036;-79
2023/03/21 08:27:27;;;;;;;2.58;1.20;;;;;;;2.14;84.13;100091.63;10534280;28;20040;-77
2023/03/21 08:32:31;;;;;;;1.27;1.10;;;;;;;2.28;84.02;100094.88;10534464;28;20052;-78
2023/03/21 08:37:34;;;;;;;1.98;1.23;;;;;;;2.24;84.03;100096.41;10515061;28;20059;-78
2023/03/21 08:42:37;;;;;;;1.55;1.20;;;;;;;2.26;84.33;100105.13;10533607;28;20032;-79
2023/03/21 08:47:39;;;;;;;1.30;0.90;;;;;;;2.46;83.42;100110.13;10536919;28;20048;-78
2023/03/21 08:52:42;;;;;;;3.17;1.10;;;;;;;2.64;81.82;100110.75;10541107;28;20044;-78
2023/03/21 08:57:44;;;;;;;1.27;0.88;;;;;;;2.76;78.97;100109.88;10539949;28;20050;-76
2023/03/21 09:02:48;;;;;;;1.05;0.60;;;;;;;2.76;76.62;100120.69;10538904;28;20040;-77
2023/03/21 09:07:51;;;;;;;0.43;0.43;;;;;;;4.09;72.02;100116.34;10523533;28;20036;-77
2023/03/21 09:12:54;;;;;;;0.93;0.80;;;;;;;4.72;68.30;100118.47;10529850;28;20056;-79
2023/03/21 09:18:11;;;;;;;0.75;0.68;;;;;;;4.23;69.59;100115.72;10540906;28;20047;-78
2023/03/21 09:23:14;;;;;;;0.90;0.68;;;;;;;3.66;69.99;100136.91;10523076;28;20068;-78
2023/03/21 09:28:16;;;;;;;1.25;0.90;;;;;;;3.08;71.33;100138.09;10540051;28;20058;-78
2023/03/21 09:33:20;;;;;;;1.80;0.90;;;;;;;2.87;73.31;100146.94;10539656;28;20048;-79
2023/03/21 09:38:29;;;;;;;1.08;0.90;;;;;;;2.80;72.73;100155.22;10538452;28;20042;-78
2023/03/21 09:44:07;;;;;;;0.90;0.80;;;;;;;2.76;73.87;100153.22;10519558;28;20541;-78
2023/03/21 09:49:16;;;;;;;1.15;0.80;;;;;;;2.57;72.99;100158.00;10510178;28;20139;-76
2023/03/21 09:54:26;;;;;;;0.77;0.73;;;;;;;2.76;73.69;100156.75;10489308;28;20049;-76
2023/03/21 09:59:32;;;;;;;1.00;0.70;;;;;;;3.14;72.56;100156.13;10532127;28;20055;-78
2023/03/21 10:04:36;;;;;;;0.77;0.77;;;;;;;3.07;71.73;100155.44;10506992;28;20493;-78
2023/03/21 10:09:40;;;;;;;1.08;0.90;;;;;;;3.15;71.72;100167.78;10513099;28;20048;-76
2023/03/21 10:14:53;;;;;;;0.68;0.68;;;;;;;3.28;69.83;100165.56;10535121;28;20501;-78
2023/03/21 10:20:13;;;;;;;2.20;0.95;;;;;;;3.25;68.98;100174.19;10518804;28;20409;-77
2023/03/21 10:25:20;;;;;;;0.80;0.80;;;;;;;3.32;69.29;100169.44;10536758;28;20062;-77
2023/03/21 10:30:36;;;;;;;0.98;0.88;;;;;;;3.48;69.04;100169.72;10536474;28;20050;-77
2023/03/21 10:35:41;;;;;;;2.85;1.00;;;;;;;3.59;68.86;100174.22;10536476;28;20049;-78
2023/03/21 10:40:43;;;;;;;1.08;0.90;;;;;;;3.60;66.99;100165.81;10517071;28;20394;-77
2023/03/21 10:45:47;;;;;;;1.65;0.90;;;;;;;4.07;65.22;100162.75;10535190;28;20047;-77
2023/03/21 10:50:53;;;;;;;2.47;1.20;;;;;;;4.14;65.05;100173.41;10493817;28;20045;-77
2023/03/21 10:55:58;;;;;;;0.98;0.80;;;;;;;4.08;65.35;100166.28;10460215;28;20423;-78
2023/03/21 11:01:06;;;;;;;1.25;0.90;;;;;;;3.91;64.53;100178.00;10530755;28;20059;-78
2023/03/21 11:06:21;;;;;;;0.77;0.68;;;;;;;3.79;64.10;100179.97;10534587;28;20049;-78
2023/03/21 11:11:35;;;;;;;0.70;0.70;;;;;;;3.79;63.91;100179.13;10517595;28;20056;-78
2023/03/21 11:16:43;;;;;;;1.52;0.80;;;;;;;3.59;63.13;100180.47;10517617;28;20044;-76
2023/03/21 11:21:45;;;;;;;2.17;0.80;;;;;;;3.58;62.81;100183.44;10533703;28;20524;-76
2023/03/21 11:26:49;;;;;;;0.82;0.63;;;;;;;3.63;62.12;100180.78;10533936;28;20417;-76
2023/03/21 11:31:52;;;;;;;1.25;0.77;;;;;;;3.60;61.72;100184.00;10533903;28;20055;-77
2023/03/21 11:36:58;;;;;;;1.25;0.80;;;;;;;3.62;61.47;100192.72;10533436;28;20051;-77
2023/03/21 11:42:00;;;;;;;0.75;0.65;;;;;;;3.61;60.67;100183.75;10532401;28;20047;-77
2023/03/21 11:47:02;;;;;;;1.13;0.80;;;;;;;3.57;61.03;100181.78;10533115;28;20045;-76
2023/03/21 11:52:17;;;;;;;1.52;0.80;;;;;;;3.53;61.59;100176.03;10533870;28;20441;-77
2023/03/21 11:57:38;;;;;;;1.10;0.73;;;;;;;3.51;61.49;100169.22;10533206;28;20040;-77
2023/03/21 12:03:05;;;;;;;1.02;0.90;;;;;;;3.70;61.91;100167.06;10523581;28;20041;-77
2023/03/21 12:08:22;;;;;;;0.80;0.80;;;;;;;3.90;64.41;100168.19;10508818;28;20410;-77
2023/03/21 12:13:37;;;;;;;;;;;;;;;4.15;65.18;100166.91;10504778;28;20083;-78
2023/03/21 12:18:48;;;;;;;2.97;0.90;;;;;;;4.14;64.04;100173.41;10512267;28;19930;-80
2023/03/21 12:24:07;;;;;;;2.00;1.25;;;;;;;3.97;65.10;100172.63;10530499;28;20033;-81
2023/03/21 12:29:36;;;;;;;1.83;0.98;;;;;;;4.03;66.40;100180.63;10489314;28;20043;-80
2023/03/21 12:35:03;;;;;;;2.63;0.95;;;;;;;3.86;65.31;100168.97;10508419;28;20044;-78
2023/03/21 12:40:12;;;;;;;1.35;1.05;;;;;;;3.60;66.47;100175.84;10520222;28;20040;-79
2023/03/21 12:45:22;;;;;;;3.58;2.13;;;;;;;3.50;67.54;100186.56;10533576;28;20044;-77
2023/03/21 12:50:35;;;;;;;2.38;1.60;;;;;;;3.32;68.78;100183.00;10523135;28;20606;-78
2023/03/21 12:55:41;;;;;;;1.70;1.30;;;;;;;3.07;70.33;100187.97;10530134;28;20037;-79
2023/03/21 13:00:44;;;;;;;1.42;0.90;;;;;;;2.90;71.71;100187.09;10536085;28;20046;-77
2023/03/21 13:05:50;;;;;;;3.38;1.27;;;;;;;2.75;72.06;100198.44;10533607;28;20043;-81
2023/03/21 13:11:21;;;;;;;2.75;1.17;;;;;;;2.62;72.88;100194.16;10525532;28;20428;-80
2023/03/21 13:16:26;;;;;;;1.42;1.33;;;;;;;2.56;72.88;100195.09;10503124;28;20047;-78
2023/03/21 13:21:51;;;;;;;1.45;1.00;;;;;;;2.47;72.70;100198.44;10540169;28;20033;-79
2023/03/21 13:27:05;;;;;;;0.80;0.77;;;;;;;2.58;72.29;100211.09;10536088;28;20041;-78
2023/03/21 13:32:14;;;;;;;1.67;0.80;;;;;;;2.61;71.83;100205.22;10516763;28;20050;-79
2023/03/21 13:37:52;;;;;;;4.80;1.75;;;;;;;2.82;72.98;100206.47;10528050;28;20045;-81
2023/03/21 13:43:02;;;;;;;3.53;1.48;;;;;;;3.41;71.37;100207.81;10537879;28;20040;-77
2023/03/21 13:48:27;;;;;;;1.70;1.05;;;;;;;3.17;70.56;100215.28;10541176;28;20041;-77
2023/03/21 13:53:42;;;;;;;0.80;0.80;;;;;;;2.71;71.17;100216.25;10543234;28;20509;-82
2023/03/21 13:58:44;;;;;;;1.38;1.10;;;;;;;2.67;71.52;100217.81;10490347;28;20054;-79
2023/03/21 14:03:47;;;;;;;0.90;0.90;;;;;;;2.66;71.57;100216.16;10494119;28;20046;-78
2023/03/21 14:08:49;;;;;;;1.40;1.00;;;;;;;2.44;71.98;100215.97;10501749;28;20668;-81
2023/03/21 14:13:53;;;;;;;2.03;1.17;;;;;;;2.10;72.91;100215.78;10519162;28;20055;-79
2023/03/21 14:19:28;;;;;;;3.25;1.65;;;;;;;1.87;73.65;100221.16;10527652;28;20041;-78
2023/03/21 14:24:30;;;;;;;2.20;1.33;;;;;;;1.76;73.62;100225.53;10520364;28;20422;-78
2023/03/21 14:29:33;;;;;;;2.13;1.25;;;;;;;1.64;73.49;100226.56;10517608;28;20073;-79
2023/03/21 14:34:36;;;;;;;4.63;1.60;;;;;;;1.63;74.14;100230.31;10514532;28;20051;-80
2023/03/21 14:39:42;;;;;;;1.55;1.17;;;;;;;1.47;74.22;100227.22;10531166;28;20427;-81
2023/03/21 14:44:48;;;;;;;3.25;1.40;;;;;;;1.40;73.95;100237.31;10516938;28;20044;-80
2023/03/21 14:49:52;;;;;;;2.37;1.17;;;;;;;1.52;73.60;100230.06;10508826;28;20581;-77
2023/03/21 14:54:55;;;;;;;3.10;1.30;;;;;;;1.61;73.88;100232.44;10507753;28;20052;-81
2023/03/21 15:00:00;;;;;;;0.90;0.90;;;;;;;1.55;72.26;100230.63;10511434;28;20041;-79
2023/03/21 15:05:20;;;;;;;3.22;1.20;;;;;;;1.46;72.18;100231.00;10525460;28;20086;-79
2023/03/21 15:10:24;;;;;;;1.10;1.00;;;;;;;1.26;72.04;100235.88;10517317;28;20060;-79
2023/03/21 15:15:28;;;;;;;2.53;1.10;;;;;;;1.16;71.93;100241.00;10517997;28;20497;-78
2023/03/21 15:20:32;;;;;;;2.90;1.13;;;;;;;1.14;71.36;100235.81;10521435;28;20044;-78
2023/03/21 15:25:35;;;;;;;0.95;0.70;;;;;;;1.01;71.05;100237.88;10510458;28;20037;-79
2023/03/21 15:30:37;;;;;;;2.47;1.20;;;;;;;0.99;71.22;100238.09;10515980;28;20040;-82
2023/03/21 15:35:45;;;;;;;2.42;1.20;;;;;;;0.94;71.68;100242.56;10515105;28;20045;-78
2023/03/21 15:40:47;;;;;;;;;;;;;;;0.94;71.70;100246.06;10535065;28;20056;-77
2023/03/21 15:45:52;;;;;;;1.13;0.70;;;;;;;0.88;71.44;100250.53;10552667;28;19927;-78
2023/03/21 15:50:54;;;;;;;1.40;1.00;;;;;;;0.70;71.38;100245.13;10543064;28;20058;-78
2023/03/21 15:56:00;;;;;;;2.50;1.02;;;;;;;0.41;72.15;100249.41;10551137;28;20044;-78
2023/03/21 16:01:05;;;;;;;0.80;0.60;;;;;;;0.21;72.95;100257.72;10510617;28;20056;-77
2023/03/21 16:06:13;;;;;;;1.10;0.60;;;;;;;0.16;72.99;100256.69;10525020;28;20134;-77
2023/03/21 16:11:15;;;;;;;;;;;;;;;0.24;74.05;100261.84;10536304;28;20056;-82
2023/03/21 16:16:23;;;;;;;0.98;0.85;;;;;;;0.51;74.33;100256.97;10527462;28;20340;-78
2023/03/21 16:21:28;;;;;;;1.88;1.13;;;;;;;0.55;73.29;100256.31;10523294;28;20556;-78
2023/03/21 16:26:32;;;;;;;2.58;1.50;;;;;;;0.36;72.79;100259.22;10512231;28;20040;-77
2023/03/21 16:31:35;;;;;;;3.08;1.48;;;;;;;0.44;72.50;100259.75;10516591;28;20045;-76
2023/03/21 16:36:39;;;;;;;3.30;1.75;;;;;;;0.75;71.76;100263.34;10519995;28;20037;-77
2023/03/21 16:41:43;;;;;;;3.80;1.73;;;;;;;0.39;71.29;100266.88;10544505;28;20441;-77
2023/03/21 16:46:46;;;;;;;2.05;1.60;;;;;;;0.01;72.40;100275.97;10536576;28;20036;-78
2023/03/21 16:51:48;;;;;;;1.85;1.17;;;;;;;-0.21;73.64;100282.75;10522116;28;20048;-77
2023/03/21 16:56:53;;;;;;;2.38;1.40;;;;;;;-0.31;74.69;100283.25;10515848;28;20441;-77
2023/03/21 17:01:55;;;;;;;2.10;1.25;;;;;;;-0.46;75.30;100290.84;10490469;28;20509;-76
2023/03/21 17:06:58;;;;;;;1.83;1.30;;;;;;;-0.46;75.75;100290.84;10520442;28;20063;-77
2023/03/21 17:12:00;;;;;;;1.55;1.45;;;;;;;-0.41;76.81;100289.13;10521760;28;20055;-78
2023/03/21 17:17:02;;;;;;;3.95;2.25;;;;;;;-0.36;76.98;100291.97;10541166;28;20418;-77
2023/03/21 17:22:05;;;;;;;2.25;1.30;;;;;;;-0.50;77.49;100295.00;10521331;28;20051;-78
2023/03/21 17:27:10;;;;;;;2.05;1.70;;;;;;;-0.55;77.90;100300.19;10510126;28;20036;-76
2023/03/21 17:32:13;;;;;;;5.75;1.40;;;;;;;-0.33;78.19;100306.94;10509940;28;20040;-78
2023/03/21 17:37:16;;;;;;;2.08;1.48;;;;;;;-0.43;78.55;100322.75;10517430;28;20036;-77
2023/03/21 17:42:19;;;;;;;2.72;1.60;;;;;;;-0.46;79.06;100321.31;10525889;28;20043;-78
2023/03/21 17:47:24;;;;;;;2.67;1.77;;;;;;;-0.60;79.36;100317.03;10535851;28;20633;-77
2023/03/21 17:52:26;;;;;;;2.75;1.40;;;;;;;-0.74;80.12;100315.44;10530937;28;20532;-82
2023/03/21 17:57:28;;;;;;;3.10;2.08;;;;;;;-0.40;80.42;100316.91;10496636;28;20040;-79
2023/03/21 18:02:31;;;;;;;1.67;1.33;;;;;;;-0.42;80.65;100314.44;10534374;28;20041;-78
2023/03/21 18:07:34;;;;;;;3.08;1.50;;;;;;;-0.49;80.33;100308.28;10502202;28;20085;-78
2023/03/21 18:12:37;;;;;;;2.28;1.67;;;;;;;-0.44;80.72;100310.31;10525516;28;20036;-77
2023/03/21 18:17:39;;;;;;;2.65;2.10;;;;;;;-0.55;80.48;100309.13;10529702;28;20048;-79
2023/03/21 18:22:42;;;;;;;2.35;2.00;;;;;;;-0.50;80.80;100306.63;10533834;28;20050;-77
2023/03/21 18:27:45;;;;;;;2.38;2.03;;;;;;;-0.55;80.83;100300.19;10535098;28;20519;-78
2023/03/21 18:32:52;;;;;;;2.47;2.03;;;;;;;-0.54;81.14;100299.16;10530373;28;20044;-80
2023/03/21 18:37:54;;;;;;;1.77;1.63;;;;;;;-0.52;80.75;100292.53;10525444;28;20036;-79
2023/03/21 18:42:57;;;;;;;2.92;1.95;;;;;;;-0.56;81.00;100294.00;10489708;28;20417;-78
2023/03/21 18:47:59;;;;;;;3.22;1.83;;;;;;;-0.61;81.36;100294.66;10534263;28;20035;-79
2023/03/21 18:53:03;;;;;;;3.40;1.67;;;;;;;-0.53;80.71;100296.25;10515681;28;20044;-77
2023/03/21 19:03:37;;;;;;;2.72;1.70;;;;;;;-0.61;80.20;100294.66;10528747;28;20429;-78
2023/03/21 19:08:39;;;;;;;4.13;1.80;;;;;;;-0.63;79.92;100290.53;10514123;28;20047;-77
2023/03/21 19:13:41;;;;;;;2.67;1.70;;;;;;;-0.72;80.62;100291.81;10507187;28;20098;-78
2023/03/21 19:18:47;;;;;;;2.17;1.30;;;;;;;-0.54;80.67;100291.91;10523710;28;20051;-78
2023/03/21 19:23:50;;;;;;;2.17;1.35;;;;;;;-0.50;80.50;100290.44;10503172;28;20043;-78
2023/03/21 19:28:52;;;;;;;3.25;1.45;;;;;;;-0.45;80.48;100290.63;10522408;28;20040;-80
2023/03/21 19:33:55;;;;;;;1.45;1.25;;;;;;;-0.42;80.51;100298.25;10497675;28;20052;-78
2023/03/21 19:38:57;;;;;;;1.63;1.15;;;;;;;-0.44;79.76;100308.44;10531258;28;20413;-79
2023/03/21 19:44:04;;;;;;;2.28;1.08;;;;;;;-0.52;80.28;100302.47;10526209;28;20032;-79
2023/03/21 19:49:10;;;;;;;1.92;1.02;;;;;;;-0.50;80.45;100312.00;10514394;28;20043;-77
2023/03/21 19:54:13;;;;;;;3.25;1.20;;;;;;;-0.45;80.65;100311.34;10531144;28;20048;-80
2023/03/21 19:59:16;;;;;;;2.22;1.25;;;;;;;-0.56;80.87;100318.25;10519520;28;20049;-79
2023/03/21 20:04:22;;;;;;;1.17;1.08;;;;;;;-0.57;81.29;100319.28;10528685;28;20067;-78
2023/03/21 20:09:24;;;;;;;1.33;1.10;;;;;;;-0.59;82.04;100317.84;10529572;28;20045;-79
2023/03/21 20:14:27;;;;;;;2.28;1.00;;;;;;;-0.53;82.10;100319.69;10524973;28;20059;-78
2023/03/21 20:19:30;;;;;;;1.10;1.00;;;;;;;-0.60;82.65;100317.03;10526151;28;20063;-78
2023/03/21 20:24:32;;;;;;;1.70;1.30;;;;;;;-0.45;83.29;100314.88;10525752;28;20532;-79
2023/03/21 20:29:38;;;;;;;2.97;1.17;;;;;;;-0.08;83.22;100323.94;10525193;28;20043;-78
2023/03/21 20:34:58;;;;;;;3.50;1.25;;;;;;;-0.12;82.99;100330.81;10526038;28;20052;-80
2023/03/21 20:40:08;;;;;;;3.00;1.40;;;;;;;-0.26;84.24;100321.16;10509768;28;20604;-78
2023/03/21 20:45:44;;;;;;;1.95;1.40;;;;;;;-0.36;84.24;100329.72;10486746;28;20135;-80
2023/03/21 20:50:49;;;;;;;1.45;1.33;;;;;;;-0.44;85.10;100327.31;10533399;28;20051;-79
2023/03/21 20:55:52;;;;;;;2.97;1.27;;;;;;;-0.28;85.58;100335.91;10521040;28;20044;-79
2023/03/21 21:00:58;;;;;;;1.65;1.13;;;;;;;-0.20;85.89;100332.94;10536014;28;20046;-79
2023/03/21 21:06:16;;;;;;;2.13;1.13;;;;;;;-0.12;86.06;100332.69;10517977;28;20043;-80
2023/03/21 21:11:19;;;;;;;1.52;1.17;;;;;;;0.06;85.97;100338.16;10516333;28;20400;-79
2023/03/21 21:16:21;;;;;;;1.40;1.20;;;;;;;0.00;85.97;100336.34;10520167;28;20054;-79
2023/03/21 21:21:23;;;;;;;1.33;1.23;;;;;;;0.00;86.33;100341.75;10533104;28;20070;-79
2023/03/21 21:26:28;;;;;;;3.28;1.30;;;;;;;-0.09;86.72;100345.75;10524421;28;20055;-79
2023/03/21 21:31:34;;;;;;;1.58;1.10;;;;;;;0.00;86.59;100352.53;10516452;28;20507;-82
2023/03/21 21:36:36;;;;;;;2.25;1.10;;;;;;;0.01;87.16;100354.19;10521850;28;20041;-78
2023/03/21 21:41:42;;;;;;;1.52;1.20;;;;;;;0.22;86.87;100364.59;10526737;28;20044;-80
2023/03/21 21:46:44;;;;;;;1.00;1.00;;;;;;;0.29;86.64;100365.34;10530974;28;20044;-79
2023/03/21 21:51:46;;;;;;;2.00;1.30;;;;;;;0.24;86.55;100370.59;10527631;28;20058;-80
2023/03/21 21:56:52;;;;;;;1.33;1.20;;;;;;;0.63;87.29;100375.84;10507131;28;20409;-79
2023/03/21 22:01:57;;;;;;;1.52;1.17;;;;;;;1.02;85.65;100370.03;10507378;28;20052;-79
2023/03/21 22:07:00;;;;;;;1.60;1.20;;;;;;;1.10;83.97;100363.50;10517422;28;20037;-78
2023/03/21 22:12:03;;;;;;;3.13;1.40;;;;;;;0.63;84.23;100375.84;10514706;28;20052;-78
2023/03/21 22:17:06;;;;;;;3.78;1.50;;;;;;;0.33;85.29;100373.00;10520201;28;20048;-79
2023/03/21 22:22:09;;;;;;;1.40;1.30;;;;;;;0.34;86.24;100370.06;10507112;28;20037;-78
2023/03/21 22:27:36;;;;;;;1.90;1.30;;;;;;;0.22;86.60;100375.38;10502058;28;20047;-78
2023/03/21 22:32:39;;;;;;;2.00;1.30;;;;;;;0.44;86.82;100375.00;10527628;28;20040;-77
2023/03/21 22:37:42;;;;;;;2.08;1.75;;;;;;;0.28;86.55;100374.50;10510713;28;20525;-78
2023/03/21 22:42:45;;;;;;;2.03;1.50;;;;;;;0.15;87.16;100379.97;10531202;28;20656;-78
2023/03/21 22:47:48;;;;;;;2.13;1.65;;;;;;;0.12;88.14;100379.59;10508148;28;20037;-79
2023/03/21 22:52:51;;;;;;;2.05;1.55;;;;;;;0.18;88.01;100386.84;10503600;28;20052;-78
2023/03/21 22:57:53;;;;;;;1.80;1.50;;;;;;;0.26;88.43;100379.28;10517829;28;20413;-78
2023/03/21 23:02:56;;;;;;;3.38;1.73;;;;;;;0.21;88.43;100384.53;10505971;28;20047;-79
2023/03/21 23:07:59;;;;;;;2.58;1.60;;;;;;;0.11;88.98;100384.16;10504680;28;20048;-78
2023/03/21 23:13:01;;;;;;;2.05;1.85;;;;;;;0.16;88.90;100389.72;10515234;28;20065;-78
2023/03/21 23:18:03;;;;;;;2.33;1.83;;;;;;;0.15;89.08;100393.47;10500219;28;20040;-78
2023/03/21 23:23:05;;;;;;;1.65;1.42;;;;;;;0.07;89.20;100391.06;10517039;28;20413;-78
2023/03/21 23:28:08;;;;;;;1.73;1.60;;;;;;;0.07;89.43;100393.75;10524884;28;20048;-78
2023/03/21 23:33:11;;;;;;;1.40;1.30;;;;;;;0.06;89.90;100394.81;10521414;28;20064;-79
2023/03/21 23:38:13;;;;;;;2.55;1.55;;;;;;;0.18;90.00;100384.16;10525924;28;20043;-77
2023/03/21 23:43:16;;;;;;;3.65;1.90;;;;;;;0.06;89.78;100392.09;10487496;28;20530;-78
2023/03/21 23:48:18;;;;;;;3.15;1.80;;;;;;;0.04;89.99;100394.19;10510659;28;20044;-77
2023/03/21 23:53:20;;;;;;;3.80;1.90;;;;;;;0.03;90.05;100395.25;10528936;28;20059;-78
2023/03/21 23:58:25;;;;;;;2.53;1.90;;;;;;;-0.07;90.54;100392.19;10506919;28;20048;-78
